createdAt,value
2023-02-07T00:01:38.773Z,100971.14
2023-02-07T00:04:13.113Z,100970.86
2023-02-07T00:06:47.066Z,100971.55
2023-02-07T00:09:21.328Z,100972.04
2023-02-07T00:11:54.143Z,100976.58
2023-02-07T00:14:27.721Z,100968.11
2023-02-07T00:17:01.786Z,100974.35
2023-02-07T00:19:36.393Z,100964.03
2023-02-07T00:22:09.100Z,100962.84
2023-02-07T00:24:42.801Z,100972.48
2023-02-07T00:27:17.281Z,100977.98
2023-02-07T00:29:51.448Z,100972.57
2023-02-07T00:32:25.388Z,100980.89
2023-02-07T00:34:58.547Z,100974.05
2023-02-07T00:37:32.832Z,100972.63
2023-02-07T00:40:07.366Z,100967.75
2023-02-07T00:42:42.551Z,100974.15
2023-02-07T00:45:16.470Z,100968.00
2023-02-07T00:47:50.478Z,100965.51
2023-02-07T00:50:23.503Z,100979.91
2023-02-07T00:52:57.364Z,100967.77
2023-02-07T00:55:30.436Z,100962.52
2023-02-07T00:58:04.081Z,100965.27
2023-02-07T01:00:38.661Z,100982.00
2023-02-07T01:03:12.539Z,100974.95
2023-02-07T01:05:47.406Z,100976.71
2023-02-07T01:08:22.335Z,100977.78
2023-02-07T01:10:57.296Z,100973.05
2023-02-07T01:13:31.722Z,100978.80
2023-02-07T01:16:06.334Z,100978.74
2023-02-07T01:18:40.560Z,100970.55
2023-02-07T01:21:23.881Z,100973.45
2023-02-07T01:23:57.899Z,100972.67
2023-02-07T01:26:30.923Z,100968.11
2023-02-07T01:29:04.824Z,100968.60
2023-02-07T01:31:38.951Z,100964.42
2023-02-07T01:34:14.682Z,100962.66
2023-02-07T01:36:48.736Z,100963.45
2023-02-07T01:39:22.880Z,100955.34
2023-02-07T01:41:57.043Z,100961.77
2023-02-07T01:44:35.546Z,100963.75
2023-02-07T01:47:15.329Z,100962.11
2023-02-07T01:49:52.024Z,100962.97
2023-02-07T01:52:36.143Z,100959.15
2023-02-07T01:55:16.664Z,100958.61
2023-02-07T01:57:50.523Z,100965.38
2023-02-07T02:00:24.880Z,100967.92
2023-02-07T02:02:59.189Z,100973.13
2023-02-07T02:05:34.039Z,100992.20
2023-02-07T02:08:07.900Z,100996.95
2023-02-07T02:11:02.917Z,100989.13
2023-02-07T02:13:45.462Z,100981.08
2023-02-07T02:16:39.677Z,100989.41
2023-02-07T02:19:40.937Z,100989.98
2023-02-07T02:22:57.590Z,100987.23
2023-02-07T02:25:58.183Z,100980.45
2023-02-07T02:29:09.832Z,100984.22
2023-02-07T02:32:33.864Z,100989.14
2023-02-07T02:35:20.937Z,100976.07
2023-02-07T02:38:11.761Z,100972.78
2023-02-07T02:41:01.935Z,100959.55
2023-02-07T02:44:04.429Z,100960.53
2023-02-07T02:46:40.416Z,100959.06
2023-02-07T02:49:17.146Z,100964.01
2023-02-07T02:51:54.947Z,100961.99
2023-02-07T02:54:35.247Z,100964.33
2023-02-07T02:57:51.390Z,100974.91
2023-02-07T03:01:10.810Z,100982.53
2023-02-07T03:04:04.801Z,100973.55
2023-02-07T03:06:44.849Z,100965.80
2023-02-07T03:09:35.582Z,100970.94
2023-02-07T03:12:16.911Z,100968.60
2023-02-07T03:15:09.274Z,100965.70
2023-02-07T03:18:00.128Z,100970.86
2023-02-07T03:20:41.696Z,100964.62
2023-02-07T03:23:16.474Z,100968.11
2023-02-07T03:25:52.209Z,100962.59
2023-02-07T03:28:28.393Z,100957.83
2023-02-07T03:31:03.966Z,100963.13
2023-02-07T03:33:37.993Z,100959.88
2023-02-07T03:36:23.809Z,100965.66
2023-02-07T03:38:57.641Z,100966.40
2023-02-07T03:41:47.843Z,100979.97
2023-02-07T03:44:23.789Z,100969.23
2023-02-07T03:46:58.159Z,100971.19
2023-02-07T03:49:32.066Z,100969.92
2023-02-07T03:52:06.105Z,100980.66
2023-02-07T03:54:38.987Z,100968.31
2023-02-07T03:57:13.208Z,100969.80
2023-02-07T03:59:47.753Z,100972.02
2023-02-07T04:02:21.759Z,100960.79
2023-02-07T04:04:55.578Z,100963.86
2023-02-07T04:07:28.544Z,100953.32
2023-02-07T04:10:03.623Z,100955.08
2023-02-07T04:12:37.960Z,100956.93
2023-02-07T04:15:11.072Z,100959.47
2023-02-07T04:17:44.793Z,100956.36
2023-02-07T04:20:19.349Z,100962.50
2023-02-07T04:22:53.587Z,100965.98
2023-02-07T04:25:27.947Z,100968.53
2023-02-07T04:28:01.691Z,100968.86
2023-02-07T04:30:35.880Z,100970.50
2023-02-07T04:33:09.866Z,100974.67
2023-02-07T04:35:43.706Z,100971.92
2023-02-07T04:38:16.608Z,100969.45
2023-02-07T04:40:50.282Z,100964.45
2023-02-07T04:43:23.142Z,100958.36
2023-02-07T04:45:57.049Z,100957.86
2023-02-07T04:48:29.932Z,100958.60
2023-02-07T04:51:04.029Z,100952.32
2023-02-07T04:53:37.005Z,100976.25
2023-02-07T04:56:10.765Z,100980.84
2023-02-07T04:58:45.135Z,100971.33
2023-02-07T05:01:19.086Z,100985.45
2023-02-07T05:03:53.106Z,100991.95
2023-02-07T05:06:27.401Z,100991.16
2023-02-07T05:09:01.822Z,100985.87
2023-02-07T05:11:34.671Z,100980.58
2023-02-07T05:14:08.376Z,100982.00
2023-02-07T05:16:42.913Z,100983.90
2023-02-07T05:19:16.145Z,100986.23
2023-02-07T05:21:50.143Z,100990.03
2023-02-07T05:24:24.407Z,100982.57
2023-02-07T05:26:58.201Z,100984.89
2023-02-07T05:29:32.055Z,100987.91
2023-02-07T05:32:24.922Z,100988.18
2023-02-07T05:34:58.906Z,100986.70
2023-02-07T05:37:32.776Z,100991.50
2023-02-07T05:40:08.487Z,100985.87
2023-02-07T05:42:42.616Z,100997.56
2023-02-07T05:45:16.556Z,100992.48
2023-02-07T05:47:52.022Z,100993.06
2023-02-07T05:50:26.676Z,101011.59
2023-02-07T05:53:02.504Z,101004.77
2023-02-07T05:55:38.140Z,101020.90
2023-02-07T05:58:12.786Z,101011.39
2023-02-07T06:00:47.213Z,101011.45
2023-02-07T06:03:21.152Z,101014.41
2023-02-07T06:05:54.040Z,101015.78
2023-02-07T06:08:28.388Z,101019.08
2023-02-07T06:11:01.194Z,101018.86
2023-02-07T06:13:35.822Z,101011.03
2023-02-07T06:16:11.050Z,101011.25
2023-02-07T06:18:45.082Z,101023.73
2023-02-07T06:21:21.320Z,101013.36
2023-02-07T06:23:55.524Z,101005.89
2023-02-07T06:26:28.638Z,101030.70
2023-02-07T06:29:02.435Z,101028.52
2023-02-07T06:31:37.028Z,101031.97
2023-02-07T06:34:10.920Z,101039.59
2023-02-07T06:36:44.909Z,101046.30
2023-02-07T06:39:19.300Z,101049.73
2023-02-07T06:41:53.111Z,101043.28
2023-02-07T06:44:27.407Z,101038.89
2023-02-07T06:47:01.445Z,101037.77
2023-02-07T06:49:36.732Z,101047.13
2023-02-07T06:52:10.878Z,101053.12
2023-02-07T06:54:45.401Z,101050.87
2023-02-07T06:57:19.435Z,101050.66
2023-02-07T06:59:53.560Z,101048.81
2023-02-07T07:02:27.209Z,101053.89
2023-02-07T07:05:01.448Z,101053.95
2023-02-07T07:07:36.004Z,101046.48
2023-02-07T07:10:10.679Z,101050.87
2023-02-07T07:12:44.701Z,101046.85
2023-02-07T07:15:19.606Z,101043.05
2023-02-07T07:17:52.570Z,101056.38
2023-02-07T07:20:26.229Z,101054.27
2023-02-07T07:22:59.896Z,101050.25
2023-02-07T07:25:34.123Z,101050.25
2023-02-07T07:28:08.000Z,101063.84
2023-02-07T07:30:41.998Z,101056.19
2023-02-07T07:33:14.947Z,101060.48
2023-02-07T07:35:48.977Z,101051.30
2023-02-07T07:38:22.892Z,101053.00
2023-02-07T07:40:57.631Z,101050.84
2023-02-07T07:43:31.200Z,101053.86
2023-02-07T07:46:07.637Z,101051.59
2023-02-07T07:48:41.874Z,101059.80
2023-02-07T07:51:15.974Z,101065.42
2023-02-07T07:53:50.430Z,101069.80
2023-02-07T07:56:23.334Z,101073.25
2023-02-07T07:58:58.560Z,101074.04
2023-02-07T08:01:32.444Z,101078.22
2023-02-07T08:04:07.697Z,101068.53
2023-02-07T08:06:41.552Z,101069.86
2023-02-07T08:09:15.824Z,101071.92
2023-02-07T08:11:49.797Z,101073.47
2023-02-07T08:14:22.709Z,101071.71
2023-02-07T08:16:56.544Z,101070.65
2023-02-07T08:19:29.462Z,101070.65
2023-02-07T08:22:03.451Z,101061.81
2023-02-07T08:24:37.465Z,101068.22
2023-02-07T08:27:11.575Z,101073.09
2023-02-07T08:29:46.419Z,101058.27
2023-02-07T08:32:21.030Z,101056.92
2023-02-07T08:34:56.285Z,101058.09
2023-02-07T08:37:30.395Z,101063.25
2023-02-07T08:40:07.264Z,101062.39
2023-02-07T08:42:42.545Z,101062.52
2023-02-07T08:45:17.961Z,101063.45
2023-02-07T08:47:52.069Z,101062.88
2023-02-07T08:50:25.953Z,101058.65
2023-02-07T08:52:59.828Z,101057.74
2023-02-07T08:55:34.029Z,101051.09
2023-02-07T08:58:07.877Z,101046.22
2023-02-07T09:00:44.078Z,101044.89
2023-02-07T09:03:17.800Z,101048.45
2023-02-07T09:05:51.474Z,101038.70
2023-02-07T09:08:25.823Z,101031.78
2023-02-07T09:10:59.730Z,101044.70
2023-02-07T09:13:32.685Z,101045.48
2023-02-07T09:16:07.529Z,101056.92
2023-02-07T09:18:43.353Z,101042.52
2023-02-07T09:21:18.517Z,101040.89
2023-02-07T09:23:52.337Z,101054.23
2023-02-07T09:26:30.969Z,101048.70
2023-02-07T09:29:05.446Z,101052.16
2023-02-07T09:31:40.102Z,101047.64
2023-02-07T09:34:14.340Z,101063.11
2023-02-07T09:36:49.922Z,101053.09
2023-02-07T09:39:24.406Z,101047.70
2023-02-07T09:42:24.254Z,101058.20
2023-02-07T09:45:03.136Z,101062.33
2023-02-07T09:47:39.445Z,101056.27
2023-02-07T09:50:24.064Z,101063.78
2023-02-07T09:53:18.741Z,101070.77
2023-02-07T09:56:02.548Z,101059.45
2023-02-07T09:58:50.095Z,101055.72
2023-02-07T10:01:31.333Z,101056.38
2023-02-07T10:04:26.601Z,101062.01
2023-02-07T10:07:02.089Z,101056.70
2023-02-07T10:09:42.441Z,101054.61
2023-02-07T10:12:51.155Z,101053.25
2023-02-07T10:15:35.803Z,101055.88
2023-02-07T10:18:36.372Z,101063.87
2023-02-07T10:21:26.133Z,101081.91
2023-02-07T10:24:35.837Z,101067.81
2023-02-07T10:27:15.507Z,101064.89
2023-02-07T10:30:18.278Z,101058.82
2023-02-07T10:32:53.412Z,101065.61
2023-02-07T10:35:39.737Z,101053.20
2023-02-07T10:38:42.370Z,101057.23
2023-02-07T10:41:23.451Z,101061.87
2023-02-07T10:43:57.486Z,101059.89
2023-02-07T10:46:31.322Z,101057.55
2023-02-07T10:49:05.230Z,101066.37
2023-02-07T10:51:44.421Z,101054.04
2023-02-07T10:54:23.066Z,101055.22
2023-02-07T10:57:03.009Z,101047.98
2023-02-07T10:59:49.247Z,101054.28
2023-02-07T11:02:50.060Z,101042.88
2023-02-07T11:05:27.579Z,101034.56
2023-02-07T11:08:10.156Z,101037.31
2023-02-07T11:10:46.273Z,101039.66
2023-02-07T11:13:24.494Z,101041.50
2023-02-07T11:16:10.256Z,101042.44
2023-02-07T11:18:57.636Z,101046.19
2023-02-07T11:21:46.963Z,101047.95
2023-02-07T11:24:30.015Z,101052.88
2023-02-07T11:27:13.228Z,101043.45
2023-02-07T11:30:00.639Z,101047.80
2023-02-07T11:32:36.635Z,101046.30
2023-02-07T11:35:11.745Z,101052.88
2023-02-07T11:37:50.185Z,101068.41
2023-02-07T11:40:34.469Z,101069.36
2023-02-07T11:43:25.473Z,101069.39
2023-02-07T11:46:09.223Z,101068.12
2023-02-07T11:48:43.570Z,101072.91
2023-02-07T11:51:18.028Z,101076.39
2023-02-07T11:53:58.493Z,101070.41
2023-02-07T11:56:37.059Z,101086.45
2023-02-07T11:59:26.851Z,101077.16
2023-02-07T12:02:25.872Z,101085.52
2023-02-07T12:05:19.813Z,101067.52
2023-02-07T12:08:04.032Z,101079.59
2023-02-07T12:10:41.187Z,101087.47
2023-02-07T12:13:38.851Z,101071.62
2023-02-07T12:16:17.588Z,101072.70
2023-02-07T12:18:56.940Z,101086.91
2023-02-07T12:21:58.755Z,101098.01
2023-02-07T12:24:48.620Z,101099.48
2023-02-07T12:27:26.276Z,101114.84
2023-02-07T12:30:30.914Z,101114.48
2023-02-07T12:33:31.937Z,101106.06
2023-02-07T12:36:19.203Z,101121.53
2023-02-07T12:39:18.233Z,101128.63
2023-02-07T12:42:02.759Z,101130.81
2023-02-07T12:44:41.243Z,101134.83
2023-02-07T12:47:56.038Z,101130.46
2023-02-07T12:50:57.896Z,101136.16
2023-02-07T12:53:37.099Z,101147.13
2023-02-07T12:56:24.563Z,101156.27
2023-02-07T12:59:24.145Z,101150.22
2023-02-07T13:02:37.426Z,101159.15
2023-02-07T13:05:35.256Z,101166.66
2023-02-07T13:08:36.462Z,101185.06
2023-02-07T13:11:24.613Z,101183.05
2023-02-07T13:14:36.525Z,101175.20
2023-02-07T13:17:18.315Z,101185.80
2023-02-07T13:20:13.261Z,101177.75
2023-02-07T13:23:03.848Z,101184.27
2023-02-07T13:25:41.891Z,101186.48
2023-02-07T13:28:26.907Z,101195.04
2023-02-07T13:31:01.946Z,101201.92
2023-02-07T13:33:39.583Z,101194.27
2023-02-07T13:36:18.592Z,101209.06
2023-02-07T13:39:36.783Z,101212.87
2023-02-07T13:42:43.541Z,101206.09
2023-02-07T13:45:42.460Z,101210.22
2023-02-07T13:48:29.365Z,101214.91
2023-02-07T13:51:24.538Z,101205.75
2023-02-07T13:54:20.448Z,101215.15
2023-02-07T13:57:21.802Z,101228.61
2023-02-07T14:00:16.735Z,101219.14
2023-02-07T14:02:54.928Z,101225.72
2023-02-07T14:05:33.076Z,101227.53
2023-02-07T14:08:22.433Z,101229.75
2023-02-07T14:11:01.641Z,101237.94
2023-02-07T14:13:37.195Z,101241.56
2023-02-07T14:16:15.288Z,101236.25
2023-02-07T14:18:55.806Z,101242.63
2023-02-07T14:21:36.189Z,101244.48
2023-02-07T14:24:21.870Z,101268.34
2023-02-07T14:27:01.067Z,101260.65
2023-02-07T14:29:55.205Z,101260.61
2023-02-07T14:33:06.715Z,101276.41
2023-02-07T14:36:08.743Z,101272.75
2023-02-07T14:39:09.266Z,101266.12
2023-02-07T14:41:44.945Z,101271.73
2023-02-07T14:44:37.035Z,101279.74
2023-02-07T14:47:18.285Z,101280.23
2023-02-07T14:49:55.432Z,101286.04
2023-02-07T14:52:35.915Z,101290.80
2023-02-07T14:55:20.037Z,101297.67
2023-02-07T14:58:08.519Z,101299.48
2023-02-07T15:00:51.732Z,101301.25
2023-02-07T15:03:25.568Z,101311.94
2023-02-07T15:06:03.132Z,101317.90
2023-02-07T15:08:38.106Z,101328.05
2023-02-07T15:11:13.956Z,101337.62
2023-02-07T15:13:50.152Z,101330.67
2023-02-07T15:16:37.147Z,101341.23
2023-02-07T15:19:38.799Z,101358.38
2023-02-07T15:22:25.419Z,101357.26
2023-02-07T15:24:52.572Z,101351.74
2023-02-07T15:27:29.705Z,101365.77
2023-02-07T15:30:08.141Z,101366.30
2023-02-07T15:32:49.814Z,101358.33
2023-02-07T15:35:30.191Z,101368.52
2023-02-07T15:38:20.716Z,101364.33
2023-02-07T15:40:57.639Z,101382.74
2023-02-07T15:43:36.597Z,101363.27
2023-02-07T15:46:13.494Z,101382.59
2023-02-07T15:48:58.400Z,101373.66
2023-02-07T15:51:34.143Z,101370.38
2023-02-07T15:54:08.478Z,101377.70
2023-02-07T15:56:42.367Z,101368.78
2023-02-07T15:59:18.184Z,101380.24
2023-02-07T16:01:57.766Z,101380.58
2023-02-07T16:04:33.233Z,101397.14
2023-02-07T16:07:11.372Z,101386.41
2023-02-07T16:09:47.611Z,101395.48
2023-02-07T16:12:46.112Z,101398.94
2023-02-07T16:15:32.984Z,101403.62
2023-02-07T16:18:07.998Z,101401.77
2023-02-07T16:20:43.684Z,101410.69
2023-02-07T16:23:17.471Z,101417.22
2023-02-07T16:25:51.416Z,101411.91
2023-02-07T16:28:25.520Z,101420.61
2023-02-07T16:31:00.706Z,101414.61
2023-02-07T16:33:34.639Z,101414.52
2023-02-07T16:36:14.672Z,101428.11
2023-02-07T16:38:48.452Z,101427.91
2023-02-07T16:41:34.411Z,101420.94
2023-02-07T16:44:17.556Z,101428.37
2023-02-07T16:46:51.615Z,101428.48
2023-02-07T16:49:28.227Z,101442.32
2023-02-07T16:52:02.324Z,101443.37
2023-02-07T16:54:36.243Z,101437.02
2023-02-07T16:57:10.678Z,101449.69
2023-02-07T16:59:43.878Z,101443.81
2023-02-07T17:02:19.369Z,101452.45
2023-02-07T17:04:53.231Z,101458.17
2023-02-07T17:07:27.136Z,101457.20
2023-02-07T17:10:01.418Z,101462.56
2023-02-07T17:12:37.178Z,101467.59
2023-02-07T17:15:12.483Z,101479.31
2023-02-07T17:17:46.416Z,101458.82
2023-02-07T17:20:29.443Z,101473.30
2023-02-07T17:23:03.319Z,101483.20
2023-02-07T17:25:37.983Z,101481.49
2023-02-07T17:28:18.276Z,101495.39
2023-02-07T17:30:52.537Z,101496.27
2023-02-07T17:33:26.485Z,101501.14
2023-02-07T17:35:59.385Z,101499.76
2023-02-07T17:38:33.115Z,101508.23
2023-02-07T17:41:06.638Z,101503.66
2023-02-07T17:43:41.947Z,101507.14
2023-02-07T17:46:25.687Z,101521.42
2023-02-07T17:48:59.934Z,101524.80
2023-02-07T17:51:34.315Z,101534.54
2023-02-07T17:54:07.285Z,101545.55
2023-02-07T17:56:41.794Z,101532.75
2023-02-07T17:59:24.398Z,101546.85
2023-02-07T18:01:58.438Z,101549.68
2023-02-07T18:04:32.473Z,101558.50
2023-02-07T18:07:07.021Z,101563.15
2023-02-07T18:09:41.066Z,101565.80
2023-02-07T18:12:14.222Z,101566.98
2023-02-07T18:14:48.869Z,101573.34
2023-02-07T18:17:25.259Z,101578.89
2023-02-07T18:19:59.107Z,101583.44
2023-02-07T18:22:33.236Z,101585.31
2023-02-07T18:25:07.929Z,101586.36
2023-02-07T18:27:42.080Z,101593.54
2023-02-07T18:30:17.064Z,101595.86
2023-02-07T18:32:51.537Z,101590.91
2023-02-07T18:35:25.491Z,101594.83
2023-02-07T18:38:00.429Z,101605.72
2023-02-07T18:40:34.922Z,101596.59
2023-02-07T18:43:08.028Z,101603.64
2023-02-07T18:45:42.726Z,101604.00
2023-02-07T18:48:16.695Z,101598.69
2023-02-07T18:50:50.551Z,101610.13
2023-02-07T18:53:25.423Z,101615.54
2023-02-07T18:56:06.113Z,101615.22
2023-02-07T18:58:40.329Z,101613.95
2023-02-07T19:01:20.481Z,101614.99
2023-02-07T19:03:56.525Z,101630.11
2023-02-07T19:06:33.542Z,101635.66
2023-02-07T19:09:11.687Z,101630.93
2023-02-07T19:11:46.428Z,101638.33
2023-02-07T19:14:25.001Z,101649.55
2023-02-07T19:16:59.473Z,101652.22
2023-02-07T19:19:34.579Z,101655.22
2023-02-07T19:22:08.468Z,101651.77
2023-02-07T19:24:42.930Z,101659.53
2023-02-07T19:27:16.998Z,101661.95
2023-02-07T19:29:50.015Z,101666.57
2023-02-07T19:32:24.377Z,101673.28
2023-02-07T19:34:57.486Z,101669.02
2023-02-07T19:37:31.227Z,101665.34
2023-02-07T19:40:05.515Z,101670.42
2023-02-07T19:42:39.754Z,101677.09
2023-02-07T19:45:13.802Z,101668.80
2023-02-07T19:47:49.244Z,101679.55
2023-02-07T19:50:23.882Z,101679.55
2023-02-07T19:52:57.942Z,101685.53
2023-02-07T19:55:31.983Z,101686.45
2023-02-07T19:58:06.857Z,101679.05
2023-02-07T20:00:43.217Z,101683.22
2023-02-07T20:03:17.139Z,101692.57
2023-02-07T20:05:53.285Z,101685.77
2023-02-07T20:08:28.112Z,101685.34
2023-02-07T20:11:07.731Z,101685.67
2023-02-07T20:13:44.952Z,101685.80
2023-02-07T20:16:25.746Z,101695.73
2023-02-07T20:18:59.734Z,101690.06
2023-02-07T20:21:34.816Z,101685.12
2023-02-07T20:24:10.336Z,101694.14
2023-02-07T20:26:46.701Z,101688.83
2023-02-07T20:29:23.298Z,101699.22
2023-02-07T20:31:57.476Z,101697.27
2023-02-07T20:34:31.368Z,101693.94
2023-02-07T20:37:05.514Z,101705.59
2023-02-07T20:39:38.951Z,101715.05
2023-02-07T20:42:12.539Z,101714.81
2023-02-07T20:44:45.674Z,101712.77
2023-02-07T20:47:19.445Z,101711.71
2023-02-07T20:49:54.154Z,101723.95
2023-02-07T20:52:29.893Z,101716.45
2023-02-07T20:55:04.767Z,101721.31
2023-02-07T20:57:38.723Z,101716.32
2023-02-07T21:00:14.148Z,101722.44
2023-02-07T21:02:48.586Z,101725.82
2023-02-07T21:05:22.391Z,101733.89
2023-02-07T21:07:55.447Z,101726.40
2023-02-07T21:10:29.980Z,101725.22
2023-02-07T21:13:04.321Z,101737.69
2023-02-07T21:15:39.300Z,101737.58
2023-02-07T21:18:13.218Z,101734.22
2023-02-07T21:20:47.885Z,101741.05
2023-02-07T21:23:22.177Z,101734.00
2023-02-07T21:25:56.456Z,101740.70
2023-02-07T21:28:30.472Z,101740.47
2023-02-07T21:31:11.450Z,101738.97
2023-02-07T21:33:45.836Z,101741.95
2023-02-07T21:36:23.990Z,101746.67
2023-02-07T21:39:00.370Z,101746.20
2023-02-07T21:41:34.565Z,101752.08
2023-02-07T21:44:08.627Z,101751.85
2023-02-07T21:46:46.419Z,101774.58
2023-02-07T21:49:21.209Z,101760.91
2023-02-07T21:51:55.409Z,101768.05
2023-02-07T21:54:29.074Z,101786.48
2023-02-07T21:57:03.045Z,101787.16
2023-02-07T21:59:38.719Z,101779.31
2023-02-07T22:02:15.942Z,101788.55
2023-02-07T22:04:50.497Z,101785.55
2023-02-07T22:07:24.717Z,101790.61
2023-02-07T22:09:58.773Z,101790.50
2023-02-07T22:12:32.939Z,101802.59
2023-02-07T22:15:07.606Z,101802.12
2023-02-07T22:17:41.646Z,101811.91
2023-02-07T22:20:15.957Z,101809.49
2023-02-07T22:22:49.556Z,101818.84
2023-02-07T22:25:23.055Z,101815.83
2023-02-07T22:27:56.934Z,101813.50
2023-02-07T22:30:31.228Z,101819.37
2023-02-07T22:33:07.456Z,101809.66
2023-02-07T22:35:44.024Z,101817.97
2023-02-07T22:38:18.401Z,101827.88
2023-02-07T22:40:52.794Z,101819.91
2023-02-07T22:43:26.467Z,101822.30
2023-02-07T22:46:06.528Z,101827.00
2023-02-07T22:48:40.620Z,101845.89
2023-02-07T22:51:36.223Z,101840.91
2023-02-07T22:54:15.429Z,101849.89
2023-02-07T22:56:49.650Z,101851.63
2023-02-07T22:59:22.650Z,101859.91
2023-02-07T23:01:56.486Z,101863.22
2023-02-07T23:04:30.578Z,101859.05
2023-02-07T23:07:04.589Z,101860.40
2023-02-07T23:09:38.441Z,101861.42
2023-02-07T23:12:12.594Z,101863.40
2023-02-07T23:14:46.765Z,101867.98
2023-02-07T23:17:21.237Z,101868.66
2023-02-07T23:19:56.483Z,101878.06
2023-02-07T23:22:30.386Z,101878.18
2023-02-07T23:25:05.008Z,101881.73
2023-02-07T23:27:39.029Z,101881.84
2023-02-07T23:30:15.479Z,101889.77
2023-02-07T23:32:49.328Z,101887.70
2023-02-07T23:35:23.436Z,101887.70
2023-02-07T23:37:58.294Z,101880.17
2023-02-07T23:40:33.157Z,101878.83
2023-02-07T23:43:08.240Z,101889.63
2023-02-07T23:45:42.004Z,101880.64
2023-02-07T23:48:15.913Z,101892.95
2023-02-07T23:50:58.789Z,101888.80
2023-02-07T23:53:33.205Z,101880.95
2023-02-07T23:56:08.557Z,101891.44
2023-02-07T23:58:42.750Z,101895.91
